x

Buoy I01 - Eastern Maine Shelf (44034) Wave Buoy

6:04 - Fri 1st Jul 2016 All times are EDT. -4 hours from GMT.

  • Sig Wave height 4.3ft
  • Peak Period 8s
  • Wind
    4mph, 7mph gusts
  • Sea Temp 53°f
  • Ar Temp 55°f
  • Sea Pressure 1016.5mb
  • Buoy I01 - Eastern Maine Shelf
  • Buoy I01 - Eastern Maine Shelf

More Historic Weather Station data

Upgrade to MSW Pro to gain access to the past 30 days of data for over 8000 Wavebouys and Weather Stations around the globe.

Join Pro

Comparision Forecast

View Surf forecast
   
Sex 07/01 6:04 4.5ft 8s 4 7 mph 1016.5mb 53f 55f
5:04 4.5ft 8s 4 7 mph 1016.5mb 53f 55f
4:04 3.5ft 8s 4 7 mph 1016.5mb 53f 56f
3:04 3.5ft 8s 4
mph
1016.4mb 53f 56f
2:04 3.5ft 8s 2 4 mph 1016.7mb 53f 55f
1:04 3.5ft 8s 2 4 mph 1016.6mb 53f 56f
12:04 4ft 8s 7
mph
1016.5mb 53f 57f
Qui 06/30 11:04 3.5ft 8s 9
mph
1016.2mb 53f 58f
10:04 3.5ft 8s 7 9 mph 1015.8mb 53f 56f
9:04 4ft 8s 9
mph
1015.4mb 53f 58f
6:04 3.5ft 8s 11 13 mph 1013.9mb 53f 58f
4:04 3.5ft 8s 13
mph
1013.3mb 54f 58f
3:04 3.5ft 8s 9 11 mph 1013mb 53f 58f
2:04 2.5ft 8s 20 22 mph 1013.3mb 54f 58f
1:04 3ft 8s 11 13 mph 1013.5mb 51f 56f
12:04 3.5ft 8s 11 18 mph 1013.4mb 51f 55f
11:04 3.5ft 8s 4 9 mph 1013.2mb 52f 55f
10:04 3.5ft 8s 4 7 mph 1013.1mb 52f 56f
9:04 3.5ft 8s 2 4 mph 1012.8mb 53f 56f
8:04 3.5ft 8s 4
mph
1012.5mb 53f 56f
7:04 4ft 6s 4
mph
1012.1mb 52f 56f
6:04 3.5ft 8s 4
mph
1011.6mb 53f 55f
5:04 3ft 6s 7
mph
1011.3mb 53f 55f
4:04 3.5ft 8s 7
mph
1010.9mb 53f 55f
3:04 3.5ft 8s 4 7 mph 1011.2mb 53f 55f
2:04 3ft 8s 7 9 mph 1011.4mb 53f 55f
1:04 2.5ft 8s 4 7 mph 1011.9mb 52f 54f
12:04 3ft 8s 7
mph
1012mb 53f 55f
Qua 06/29 11:04 3.5ft 8s 4
mph
1011.8mb 53f 55f
10:04 3.5ft 8s 7 11 mph 1011.9mb 52f 56f
9:04 3ft 8s 2 4 mph 1012.4mb 53f 55f
8:04 2.5ft 6s 9
mph
1011.7mb 53f 57f
7:04 2.5ft 6s 7 9 mph 1011.3mb 54f 56f
6:04 2.5ft 8s 7
mph
1011.3mb 54f 56f
5:04 2.5ft 8s 7 9 mph 1011.6mb 54f 56f
4:04 2.5ft 6s 9 13 mph 1011.9mb 53f 56f
3:04 2.5ft 8s 9 11 mph 1011.9mb 53f 56f
2:04 2.5ft 8s 13 18 mph 1012.5mb 53f 57f
1:04 3ft 8s 11
mph
1012.5mb 53f 56f
12:04 3ft 8s 11 13 mph 1013mb 53f 56f
11:04 2.5ft 8s 7
mph
1013.3mb 53f 55f
10:04 2.5ft 8s 4 7 mph 1013.5mb 53f 55f
9:04 2.5ft 8s 7
mph
1013.6mb 53f 55f
8:04 2.5ft 8s 7 9 mph 1013.5mb 53f 56f
7:04 2ft 4s 7 9 mph 1013.1mb 53f 56f
6:04 2.5ft 8s 11 13 mph 1013.2mb 53f 56f
5:04 2.5ft 8s 11
mph
1013.3mb 53f 56f
4:04 2.5ft 8s 7 9 mph 1013.2mb 53f 55f
3:04 1.6ft 4s 11 13 mph 1013.3mb 53f 56f
2:04 2.5ft 8s 11 13 mph 1013.8mb 53f 56f
1:04 2.5ft 8s 9
mph
1014.1mb 53f 56f
12:04 2.5ft 5s 11 13 mph 1014.7mb 53f 56f
Ter 06/28 11:04 2.5ft 8s 11 13 mph 1015mb 53f 56f
10:04 2.5ft 8s 11 13 mph 1015.6mb 53f 56f
9:04 2.5ft 8s 11
mph
1015.5mb 53f 56f
8:04 2.5ft 8s 11 13 mph 1015.4mb 53f 56f
7:04 2.5ft 8s 13 16 mph 1014.7mb 53f 56f
6:04 2.5ft 8s 11 13 mph 1014.9mb 53f 56f
4:04 3ft 8s 18 20 mph 1015.4mb 53f 57f
3:04 3ft 5s 13 16 mph 1015.9mb 53f 56f
2:04 3.5ft 5s 13 16 mph 1016.4mb 53f 57f
1:04 3.5ft 5s 11 13 mph 1016.9mb 53f 57f
12:04 3.5ft 5s 13 16 mph 1017.1mb 53f 57f
11:04 4ft 6s 13 16 mph 1017mb 53f 57f
10:04 4ft 6s 13 16 mph 1016.9mb 53f 56f
9:04 4ft 6s 13 16 mph 1016.7mb 53f 57f
8:04 4.5ft 8s 16 18 mph 1016.5mb 53f 57f
7:04 4.5ft 5s 16 18 mph 1016mb 53f 56f
6:04 4.5ft 6s 20 22 mph 1015.7mb 53f 57f
5:04 5ft 6s 18 20 mph 1015.4mb 53f 56f
4:04 5ft 5s 18 20 mph 1015mb 53f 57f
3:04 4.5ft 6s 20 22 mph 1015mb 53f 58f
2:04 5ft 6s 20 22 mph 1015.4mb 53f 57f
1:04 5ft 5s 20 22 mph 1015.7mb 53f 58f
12:04 5ft 5s 18 22 mph 1015.9mb 53f 58f
Seg 06/27 11:04 4ft 5s 16 20 mph 1016.3mb 53f 57f
10:04 4.5ft 6s 18 20 mph 1016.5mb 53f 56f
9:04 4.5ft 5s 16 20 mph 1016.6mb 54f 56f
8:04 4.5ft 5s 18 20 mph 1016.2mb 51f 57f
7:04 5ft 5s 20 22 mph 1016.4mb 51f 58f
6:04 4.5ft 5s 20 22 mph 1016.5mb 52f 57f
5:04 4ft 5s 20 22 mph 1016.5mb 53f 58f
4:04 3.5ft 6s 20 22 mph 1016.3mb 54f 58f
3:04 3.5ft 5s 13 16 mph 1016.6mb 54f 58f
12:04 3ft 5s 13 16 mph 1017.9mb 54f 57f